sensor_id;sensor_type;location;lat;lon;timestamp;pressure;altitude;pressure_sealevel;temperature;humidity
58092;BME280;43896;48.178;11.578;2023-08-17T00:00:51;95945.72;;;22.47;68.56
58092;BME280;43896;48.178;11.578;2023-08-17T00:03:16;95913.09;;;22.39;68.15
58092;BME280;43896;48.178;11.578;2023-08-17T00:05:41;95898.75;;;22.33;67.92
58092;BME280;43896;48.178;11.578;2023-08-17T00:08:07;95873.28;;;22.24;67.90
58092;BME280;43896;48.178;11.578;2023-08-17T00:10:32;95966.72;;;22.74;68.07
58092;BME280;43896;48.178;11.578;2023-08-17T00:12:58;95914.00;;;22.33;68.23
58092;BME280;43896;48.178;11.578;2023-08-17T00:15:23;95863.00;;;21.97;68.20
58092;BME280;43896;48.178;11.578;2023-08-17T00:17:48;95891.00;;;22.13;68.00
58092;BME280;43896;48.178;11.578;2023-08-17T00:20:14;95891.31;;;22.05;68.17
58092;BME280;43896;48.178;11.578;2023-08-17T00:22:40;95970.09;;;22.58;68.56
58092;BME280;43896;48.178;11.578;2023-08-17T00:25:06;95895.63;;;22.06;69.22
58092;BME280;43896;48.178;11.578;2023-08-17T00:27:37;95891.59;;;21.85;69.98
58092;BME280;43896;48.178;11.578;2023-08-17T00:30:03;95924.66;;;22.21;69.38
58092;BME280;43896;48.178;11.578;2023-08-17T00:32:28;95906.38;;;22.18;69.34
58092;BME280;43896;48.178;11.578;2023-08-17T00:34:54;95896.94;;;22.15;68.93
58092;BME280;43896;48.178;11.578;2023-08-17T00:37:19;95911.25;;;22.21;68.76
58092;BME280;43896;48.178;11.578;2023-08-17T00:39:44;95901.22;;;22.04;69.42
58092;BME280;43896;48.178;11.578;2023-08-17T00:42:10;95935.50;;;22.26;69.13
58092;BME280;43896;48.178;11.578;2023-08-17T00:44:35;95900.75;;;22.07;68.96
58092;BME280;43896;48.178;11.578;2023-08-17T00:47:01;95974.25;;;22.54;69.11
58092;BME280;43896;48.178;11.578;2023-08-17T00:49:29;95980.09;;;22.51;69.18
58092;BME280;43896;48.178;11.578;2023-08-17T00:51:54;95949.28;;;22.29;69.67
58092;BME280;43896;48.178;11.578;2023-08-17T00:54:25;95952.63;;;22.25;69.77
58092;BME280;43896;48.178;11.578;2023-08-17T00:56:52;95933.28;;;22.23;70.16
58092;BME280;43896;48.178;11.578;2023-08-17T00:59:19;95938.81;;;22.28;69.81
58092;BME280;43896;48.178;11.578;2023-08-17T01:01:46;95864.75;;;21.43;71.23
58092;BME280;43896;48.178;11.578;2023-08-17T01:04:12;95930.84;;;21.42;72.77
58092;BME280;43896;48.178;11.578;2023-08-17T01:06:38;95920.09;;;21.79;72.23
58092;BME280;43896;48.178;11.578;2023-08-17T01:09:03;95864.75;;;21.61;70.58
58092;BME280;43896;48.178;11.578;2023-08-17T01:11:39;95908.66;;;22.02;70.40
58092;BME280;43896;48.178;11.578;2023-08-17T01:14:16;95914.28;;;22.13;70.04
58092;BME280;43896;48.178;11.578;2023-08-17T01:17:10;95894.44;;;22.02;69.47
58092;BME280;43896;48.178;11.578;2023-08-17T01:19:37;95929.72;;;22.29;69.41
58092;BME280;43896;48.178;11.578;2023-08-17T01:22:05;95952.09;;;22.35;69.56
58092;BME280;43896;48.178;11.578;2023-08-17T01:24:30;95967.13;;;22.36;69.56
58092;BME280;43896;48.178;11.578;2023-08-17T01:26:56;95915.25;;;21.88;69.57
58092;BME280;43896;48.178;11.578;2023-08-17T01:29:22;95983.31;;;22.29;69.82
58092;BME280;43896;48.178;11.578;2023-08-17T01:32:04;95978.75;;;22.29;69.83
58092;BME280;43896;48.178;11.578;2023-08-17T01:34:47;95933.91;;;21.95;69.74
58092;BME280;43896;48.178;11.578;2023-08-17T01:37:14;95980.31;;;22.19;70.24
58092;BME280;43896;48.178;11.578;2023-08-17T01:39:44;95886.47;;;21.53;70.32
58092;BME280;43896;48.178;11.578;2023-08-17T01:42:13;95872.66;;;21.38;71.27
58092;BME280;43896;48.178;11.578;2023-08-17T01:44:39;95895.00;;;21.62;70.64
58092;BME280;43896;48.178;11.578;2023-08-17T01:47:05;95909.69;;;21.71;70.46
58092;BME280;43896;48.178;11.578;2023-08-17T01:49:31;95951.97;;;21.99;70.59
58092;BME280;43896;48.178;11.578;2023-08-17T01:51:56;95902.50;;;21.71;70.25
58092;BME280;43896;48.178;11.578;2023-08-17T01:54:22;95898.84;;;21.66;70.55
58092;BME280;43896;48.178;11.578;2023-08-17T01:56:48;95958.25;;;22.05;70.30
58092;BME280;43896;48.178;11.578;2023-08-17T01:59:14;95901.88;;;21.58;70.76
58092;BME280;43896;48.178;11.578;2023-08-17T02:01:39;95953.66;;;21.94;70.85
58092;BME280;43896;48.178;11.578;2023-08-17T02:04:05;95837.44;;;21.22;70.91
58092;BME280;43896;48.178;11.578;2023-08-17T02:06:31;95850.66;;;21.35;70.96
58092;BME280;43896;48.178;11.578;2023-08-17T02:08:58;95910.75;;;21.70;70.60
58092;BME280;43896;48.178;11.578;2023-08-17T02:11:23;95882.66;;;21.61;70.74
58092;BME280;43896;48.178;11.578;2023-08-17T02:13:49;95938.25;;;21.77;71.18
58092;BME280;43896;48.178;11.578;2023-08-17T02:16:14;95843.25;;;21.19;71.01
58092;BME280;43896;48.178;11.578;2023-08-17T02:18:39;95885.69;;;21.52;70.68
58092;BME280;43896;48.178;11.578;2023-08-17T02:21:05;95875.25;;;21.44;70.88
58092;BME280;43896;48.178;11.578;2023-08-17T02:23:30;95886.56;;;21.46;70.61
58092;BME280;43896;48.178;11.578;2023-08-17T02:25:55;95857.34;;;21.26;70.71
58092;BME280;43896;48.178;11.578;2023-08-17T02:28:21;95941.28;;;21.81;70.96
58092;BME280;43896;48.178;11.578;2023-08-17T02:30:46;95894.97;;;21.50;70.98
58092;BME280;43896;48.178;11.578;2023-08-17T02:33:13;95854.41;;;20.97;71.99
58092;BME280;43896;48.178;11.578;2023-08-17T02:35:38;95811.72;;;20.91;71.60
58092;BME280;43896;48.178;11.578;2023-08-17T02:38:04;95811.63;;;20.97;71.48
58092;BME280;43896;48.178;11.578;2023-08-17T02:40:29;95822.28;;;21.16;70.60
58092;BME280;43896;48.178;11.578;2023-08-17T02:42:54;95885.41;;;21.54;70.71
58092;BME280;43896;48.178;11.578;2023-08-17T02:45:20;95827.50;;;21.11;70.96
58092;BME280;43896;48.178;11.578;2023-08-17T02:47:45;95832.78;;;21.17;71.37
58092;BME280;43896;48.178;11.578;2023-08-17T02:50:11;95843.25;;;21.19;71.27
58092;BME280;43896;48.178;11.578;2023-08-17T02:52:36;95911.28;;;21.60;71.66
58092;BME280;43896;48.178;11.578;2023-08-17T02:55:05;95901.03;;;21.57;71.34
58092;BME280;43896;48.178;11.578;2023-08-17T02:57:31;95941.75;;;21.78;71.30
58092;BME280;43896;48.178;11.578;2023-08-17T02:59:56;95896.00;;;20.93;73.07
58092;BME280;43896;48.178;11.578;2023-08-17T03:02:21;95924.72;;;20.54;75.90
58092;BME280;43896;48.178;11.578;2023-08-17T03:04:47;95863.69;;;20.51;74.49
58092;BME280;43896;48.178;11.578;2023-08-17T03:07:12;95910.25;;;21.06;73.63
58092;BME280;43896;48.178;11.578;2023-08-17T03:09:40;95948.03;;;21.53;72.75
58092;BME280;43896;48.178;11.578;2023-08-17T03:12:06;95855.06;;;21.11;72.09
58092;BME280;43896;48.178;11.578;2023-08-17T03:14:31;95867.91;;;21.21;72.06
58092;BME280;43896;48.178;11.578;2023-08-17T03:17:01;95935.59;;;21.59;71.88
58092;BME280;43896;48.178;11.578;2023-08-17T03:19:32;95820.41;;;20.86;71.87
58092;BME280;43896;48.178;11.578;2023-08-17T03:21:57;95856.03;;;20.98;71.58
58092;BME280;43896;48.178;11.578;2023-08-17T03:24:23;95844.47;;;20.86;72.29
58092;BME280;43896;48.178;11.578;2023-08-17T03:26:53;95942.19;;;21.19;73.49
58092;BME280;43896;48.178;11.578;2023-08-17T03:29:19;95910.75;;;19.95;77.75
58092;BME280;43896;48.178;11.578;2023-08-17T03:31:44;95905.53;;;20.39;76.35
58092;BME280;43896;48.178;11.578;2023-08-17T03:34:12;95905.78;;;20.81;73.69
58092;BME280;43896;48.178;11.578;2023-08-17T03:36:37;95856.41;;;20.65;72.80
58092;BME280;43896;48.178;11.578;2023-08-17T03:39:03;95859.59;;;20.74;72.49
58092;BME280;43896;48.178;11.578;2023-08-17T03:41:28;95920.63;;;20.95;73.14
58092;BME280;43896;48.178;11.578;2023-08-17T03:43:55;95840.53;;;20.45;73.78
58092;BME280;43896;48.178;11.578;2023-08-17T03:46:22;95911.16;;;21.00;73.10
58092;BME280;43896;48.178;11.578;2023-08-17T03:48:48;95931.28;;;21.21;72.57
58092;BME280;43896;48.178;11.578;2023-08-17T03:51:13;95886.66;;;20.34;75.18
58092;BME280;43896;48.178;11.578;2023-08-17T03:53:39;95901.47;;;20.80;74.22
58092;BME280;43896;48.178;11.578;2023-08-17T03:56:04;95930.19;;;21.10;73.03
58092;BME280;43896;48.178;11.578;2023-08-17T03:58:32;95884.19;;;20.83;72.96
58092;BME280;43896;48.178;11.578;2023-08-17T04:01:00;95947.84;;;21.29;72.53
58092;BME280;43896;48.178;11.578;2023-08-17T04:03:26;95854.19;;;19.80;76.15
58092;BME280;43896;48.178;11.578;2023-08-17T04:05:51;95893.59;;;19.84;77.21
58092;BME280;43896;48.178;11.578;2023-08-17T04:08:19;95965.41;;;20.82;74.66
58092;BME280;43896;48.178;11.578;2023-08-17T04:10:47;95930.91;;;20.23;76.33
58092;BME280;43896;48.178;11.578;2023-08-17T04:13:29;95906.59;;;20.56;74.13
58092;BME280;43896;48.178;11.578;2023-08-17T04:15:59;95935.19;;;20.81;73.18
58092;BME280;43896;48.178;11.578;2023-08-17T04:18:25;95933.84;;;20.90;72.52
58092;BME280;43896;48.178;11.578;2023-08-17T04:20:51;95984.44;;;20.35;76.16
58092;BME280;43896;48.178;11.578;2023-08-17T04:23:18;95945.53;;;20.46;75.32
58092;BME280;43896;48.178;11.578;2023-08-17T04:25:44;95979.03;;;20.98;73.69
58092;BME280;43896;48.178;11.578;2023-08-17T04:28:12;95966.66;;;21.04;72.82
58092;BME280;43896;48.178;11.578;2023-08-17T04:30:41;95932.66;;;20.86;72.95
58092;BME280;43896;48.178;11.578;2023-08-17T04:39:15;95912.25;;;20.16;75.04
58092;BME280;43896;48.178;11.578;2023-08-17T04:41:41;95903.59;;;20.21;75.01
58092;BME280;43896;48.178;11.578;2023-08-17T04:47:29;95876.97;;;20.39;72.96
58092;BME280;43896;48.178;11.578;2023-08-17T04:50:36;95991.41;;;21.18;73.17
58092;BME280;43896;48.178;11.578;2023-08-17T04:53:25;95992.28;;;21.12;73.06
58092;BME280;43896;48.178;11.578;2023-08-17T04:56:15;95883.69;;;20.42;73.56
58092;BME280;43896;48.178;11.578;2023-08-17T04:58:41;95967.38;;;20.93;73.24
58092;BME280;43896;48.178;11.578;2023-08-17T05:01:06;95895.44;;;20.66;73.26
58092;BME280;43896;48.178;11.578;2023-08-17T05:03:37;95885.44;;;20.80;72.52
58092;BME280;43896;48.178;11.578;2023-08-17T05:06:27;95881.06;;;20.86;72.59
58092;BME280;43896;48.178;11.578;2023-08-17T05:20:23;95881.31;;;21.03;72.93
58092;BME280;43896;48.178;11.578;2023-08-17T05:26:30;95940.94;;;21.59;71.87
58092;BME280;43896;48.178;11.578;2023-08-17T05:28:56;95934.78;;;21.58;71.85
58092;BME280;43896;48.178;11.578;2023-08-17T05:31:23;95913.50;;;21.45;70.99
58092;BME280;43896;48.178;11.578;2023-08-17T05:33:49;95914.50;;;21.50;71.34
58092;BME280;43896;48.178;11.578;2023-08-17T05:36:14;95900.44;;;21.36;71.89
58092;BME280;43896;48.178;11.578;2023-08-17T05:38:40;95980.56;;;21.87;71.88
58092;BME280;43896;48.178;11.578;2023-08-17T05:41:05;96000.59;;;22.15;71.07
58092;BME280;43896;48.178;11.578;2023-08-17T05:43:30;95956.34;;;21.94;70.84
58092;BME280;43896;48.178;11.578;2023-08-17T05:45:57;95911.34;;;21.72;70.69
58092;BME280;43896;48.178;11.578;2023-08-17T05:48:24;95998.13;;;22.32;69.57
58092;BME280;43896;48.178;11.578;2023-08-17T05:51:14;95999.06;;;22.37;69.49
58092;BME280;43896;48.178;11.578;2023-08-17T05:53:40;95975.41;;;22.16;70.81
58092;BME280;43896;48.178;11.578;2023-08-17T05:56:05;95940.38;;;21.57;70.76
58092;BME280;43896;48.178;11.578;2023-08-17T05:58:34;95941.34;;;21.92;70.04
58092;BME280;43896;48.178;11.578;2023-08-17T06:01:06;95936.03;;;22.04;68.58
58092;BME280;43896;48.178;11.578;2023-08-17T06:03:33;95944.47;;;22.20;68.53
58092;BME280;43896;48.178;11.578;2023-08-17T06:05:58;95973.81;;;22.57;67.98
58092;BME280;43896;48.178;11.578;2023-08-17T06:08:24;95963.78;;;22.52;68.14
58092;BME280;43896;48.178;11.578;2023-08-17T06:10:49;95938.22;;;22.38;67.98
58092;BME280;43896;48.178;11.578;2023-08-17T06:13:14;95932.06;;;22.37;67.84
58092;BME280;43896;48.178;11.578;2023-08-17T06:15:40;95928.31;;;22.38;68.02
58092;BME280;43896;48.178;11.578;2023-08-17T06:18:05;95957.28;;;22.18;69.34
58092;BME280;43896;48.178;11.578;2023-08-17T06:20:31;95976.63;;;22.62;68.48
58092;BME280;43896;48.178;11.578;2023-08-17T06:22:56;95957.84;;;22.62;67.51
58092;BME280;43896;48.178;11.578;2023-08-17T06:25:22;96001.16;;;23.01;67.30
58092;BME280;43896;48.178;11.578;2023-08-17T06:27:49;96014.72;;;23.18;66.34
58092;BME280;43896;48.178;11.578;2023-08-17T06:30:15;95924.19;;;22.66;66.52
58092;BME280;43896;48.178;11.578;2023-08-17T06:32:44;95932.69;;;22.21;68.40
58092;BME280;43896;48.178;11.578;2023-08-17T06:35:10;95912.50;;;22.60;66.72
58092;BME280;43896;48.178;11.578;2023-08-17T06:37:36;95908.13;;;22.24;67.61
58092;BME280;43896;48.178;11.578;2023-08-17T06:40:04;96009.94;;;22.54;69.37
58092;BME280;43896;48.178;11.578;2023-08-17T06:42:32;95968.47;;;22.26;69.02
58092;BME280;43896;48.178;11.578;2023-08-17T06:44:57;95964.00;;;22.39;69.22
58092;BME280;43896;48.178;11.578;2023-08-17T06:47:23;95913.44;;;22.12;67.77
58092;BME280;43896;48.178;11.578;2023-08-17T06:49:50;95965.84;;;23.16;66.22
58092;BME280;43896;48.178;11.578;2023-08-17T06:52:15;95910.19;;;23.23;65.07
58092;BME280;43896;48.178;11.578;2023-08-17T06:54:40;95954.41;;;23.73;63.69
58092;BME280;43896;48.178;11.578;2023-08-17T06:57:06;95953.66;;;23.77;63.76
58092;BME280;43896;48.178;11.578;2023-08-17T06:59:31;95932.47;;;23.24;64.96
58092;BME280;43896;48.178;11.578;2023-08-17T07:01:58;95976.56;;;23.16;65.08
58092;BME280;43896;48.178;11.578;2023-08-17T07:04:24;96018.31;;;23.35;65.61
58092;BME280;43896;48.178;11.578;2023-08-17T07:06:49;96023.09;;;23.45;65.46
58092;BME280;43896;48.178;11.578;2023-08-17T07:09:15;96013.41;;;23.32;64.96
58092;BME280;43896;48.178;11.578;2023-08-17T07:11:41;95990.34;;;23.84;62.85
58092;BME280;43896;48.178;11.578;2023-08-17T07:14:06;95956.50;;;24.11;61.65
58092;BME280;43896;48.178;11.578;2023-08-17T07:16:32;96021.22;;;24.67;60.18
58092;BME280;43896;48.178;11.578;2023-08-17T07:18:58;95997.31;;;24.25;61.68
58092;BME280;43896;48.178;11.578;2023-08-17T07:21:25;95943.19;;;24.33;59.65
58092;BME280;43896;48.178;11.578;2023-08-17T07:23:53;95979.09;;;24.90;58.57
58092;BME280;43896;48.178;11.578;2023-08-17T07:26:20;95932.56;;;24.73;58.45
58092;BME280;43896;48.178;11.578;2023-08-17T07:28:46;95976.38;;;25.07;57.67
58092;BME280;43896;48.178;11.578;2023-08-17T07:31:11;95927.34;;;24.83;57.33
58092;BME280;43896;48.178;11.578;2023-08-17T07:33:37;95966.38;;;24.68;58.94
58092;BME280;43896;48.178;11.578;2023-08-17T07:36:04;95941.78;;;24.48;59.87
58092;BME280;43896;48.178;11.578;2023-08-17T07:38:29;95987.66;;;24.87;61.00
58092;BME280;43896;48.178;11.578;2023-08-17T07:40:55;95968.25;;;24.85;61.60
58092;BME280;43896;48.178;11.578;2023-08-17T07:43:23;96022.06;;;24.85;60.61
58092;BME280;43896;48.178;11.578;2023-08-17T07:48:52;95944.75;;;24.46;61.76
58092;BME280;43896;48.178;11.578;2023-08-17T07:51:17;96021.59;;;25.61;59.59
58092;BME280;43896;48.178;11.578;2023-08-17T07:53:44;95934.16;;;24.74;58.84
58092;BME280;43896;48.178;11.578;2023-08-17T07:56:12;95990.47;;;25.48;56.99
58092;BME280;43896;48.178;11.578;2023-08-17T07:58:39;96023.75;;;26.03;56.63
58092;BME280;43896;48.178;11.578;2023-08-17T08:01:19;96020.22;;;26.25;56.32
58092;BME280;43896;48.178;11.578;2023-08-17T08:03:56;96021.84;;;26.26;56.65
58092;BME280;43896;48.178;11.578;2023-08-17T08:06:35;95948.47;;;25.30;57.50
58092;BME280;43896;48.178;11.578;2023-08-17T08:09:05;95939.28;;;25.09;57.62
58092;BME280;43896;48.178;11.578;2023-08-17T08:11:31;95924.31;;;25.35;57.41
58092;BME280;43896;48.178;11.578;2023-08-17T08:13:57;95972.47;;;26.20;55.03
58092;BME280;43896;48.178;11.578;2023-08-17T08:16:22;96007.91;;;26.61;55.05
58092;BME280;43896;48.178;11.578;2023-08-17T08:18:48;95961.63;;;25.93;55.62
58092;BME280;43896;48.178;11.578;2023-08-17T08:21:13;95923.31;;;25.63;56.10
58092;BME280;43896;48.178;11.578;2023-08-17T08:23:39;95941.81;;;26.04;56.01
58092;BME280;43896;48.178;11.578;2023-08-17T08:26:04;95936.28;;;26.16;53.96
58092;BME280;43896;48.178;11.578;2023-08-17T08:28:32;95978.72;;;26.26;55.87
58092;BME280;43896;48.178;11.578;2023-08-17T08:31:04;95923.41;;;25.96;55.54
58092;BME280;43896;48.178;11.578;2023-08-17T08:33:29;95928.31;;;26.26;53.50
58092;BME280;43896;48.178;11.578;2023-08-17T08:35:55;95947.44;;;26.84;51.73
58092;BME280;43896;48.178;11.578;2023-08-17T08:38:20;95937.22;;;26.91;51.43
58092;BME280;43896;48.178;11.578;2023-08-17T08:40:47;95973.31;;;27.23;52.07
58092;BME280;43896;48.178;11.578;2023-08-17T08:43:12;95960.59;;;27.13;52.92
58092;BME280;43896;48.178;11.578;2023-08-17T08:45:38;95978.44;;;27.19;52.02
58092;BME280;43896;48.178;11.578;2023-08-17T08:48:07;96014.31;;;27.20;51.45
58092;BME280;43896;48.178;11.578;2023-08-17T08:50:35;95927.97;;;26.50;52.08
58092;BME280;43896;48.178;11.578;2023-08-17T08:53:02;95935.97;;;26.39;52.45
58092;BME280;43896;48.178;11.578;2023-08-17T08:55:34;95949.09;;;26.58;52.37
58092;BME280;43896;48.178;11.578;2023-08-17T08:58:02;95907.06;;;26.62;52.99
58092;BME280;43896;48.178;11.578;2023-08-17T09:00:29;95974.69;;;27.25;52.18
58092;BME280;43896;48.178;11.578;2023-08-17T09:02:55;95957.09;;;27.18;51.22
58092;BME280;43896;48.178;11.578;2023-08-17T09:05:22;95927.19;;;26.87;52.85
58092;BME280;43896;48.178;11.578;2023-08-17T09:07:52;95956.19;;;27.44;51.94
58092;BME280;43896;48.178;11.578;2023-08-17T09:10:17;95959.91;;;27.33;50.79
58092;BME280;43896;48.178;11.578;2023-08-17T09:12:46;96003.78;;;27.56;52.27
58092;BME280;43896;48.178;11.578;2023-08-17T09:15:15;95947.69;;;27.25;51.85
58092;BME280;43896;48.178;11.578;2023-08-17T09:17:40;95985.34;;;27.95;50.79
58092;BME280;43896;48.178;11.578;2023-08-17T09:20:06;95995.91;;;27.44;51.30
58092;BME280;43896;48.178;11.578;2023-08-17T09:22:42;95992.75;;;27.67;50.26
58092;BME280;43896;48.178;11.578;2023-08-17T09:25:09;95957.75;;;27.93;49.88
58092;BME280;43896;48.178;11.578;2023-08-17T09:27:36;95991.34;;;28.08;51.74
58092;BME280;43896;48.178;11.578;2023-08-17T09:30:09;95957.97;;;27.81;51.02
58092;BME280;43896;48.178;11.578;2023-08-17T09:32:35;95911.34;;;27.48;50.23
58092;BME280;43896;48.178;11.578;2023-08-17T09:35:05;95960.84;;;27.64;49.11
58092;BME280;43896;48.178;11.578;2023-08-17T09:37:32;95932.31;;;27.84;50.52
58092;BME280;43896;48.178;11.578;2023-08-17T09:39:57;95911.34;;;27.43;49.96
58092;BME280;43896;48.178;11.578;2023-08-17T09:42:23;95942.25;;;27.68;50.40
58092;BME280;43896;48.178;11.578;2023-08-17T09:44:53;95948.41;;;27.53;50.84
58092;BME280;43896;48.178;11.578;2023-08-17T09:47:19;95902.75;;;27.04;50.87
58092;BME280;43896;48.178;11.578;2023-08-17T09:49:48;95928.41;;;27.06;51.75
58092;BME280;43896;48.178;11.578;2023-08-17T09:52:14;95938.09;;;27.02;52.18
58092;BME280;43896;48.178;11.578;2023-08-17T09:54:40;95911.47;;;26.73;53.22
58092;BME280;43896;48.178;11.578;2023-08-17T09:57:12;95985.88;;;27.39;53.96
58092;BME280;43896;48.178;11.578;2023-08-17T09:59:39;95987.88;;;27.64;53.92
58092;BME280;43896;48.178;11.578;2023-08-17T10:02:18;95892.56;;;27.21;52.79
58092;BME280;43896;48.178;11.578;2023-08-17T10:04:50;95896.81;;;27.55;52.44
58092;BME280;43896;48.178;11.578;2023-08-17T10:07:23;95900.91;;;27.73;51.86
58092;BME280;43896;48.178;11.578;2023-08-17T10:10:04;95929.16;;;28.08;52.21
58092;BME280;43896;48.178;11.578;2023-08-17T10:16:27;95983.91;;;28.61;50.70
58092;BME280;43896;48.178;11.578;2023-08-17T10:25:00;95884.19;;;27.86;49.69
58092;BME280;43896;48.178;11.578;2023-08-17T10:27:30;95978.69;;;28.44;50.09
58092;BME280;43896;48.178;11.578;2023-08-17T10:30:17;95978.47;;;28.61;50.88
58092;BME280;43896;48.178;11.578;2023-08-17T10:32:42;95878.78;;;27.91;49.98
58092;BME280;43896;48.178;11.578;2023-08-17T10:35:10;95917.56;;;28.53;50.21
58092;BME280;43896;48.178;11.578;2023-08-17T10:37:37;95982.28;;;28.70;49.36
58092;BME280;43896;48.178;11.578;2023-08-17T10:40:03;95958.69;;;29.07;47.03
58092;BME280;43896;48.178;11.578;2023-08-17T10:42:33;95873.72;;;28.36;47.94
58092;BME280;43896;48.178;11.578;2023-08-17T10:45:00;95903.53;;;28.56;48.33
58092;BME280;43896;48.178;11.578;2023-08-17T10:47:31;95907.19;;;27.83;48.83
58092;BME280;43896;48.178;11.578;2023-08-17T10:50:23;95964.63;;;28.42;49.50
58092;BME280;43896;48.178;11.578;2023-08-17T10:52:49;95899.97;;;28.40;48.97
58092;BME280;43896;48.178;11.578;2023-08-17T10:55:15;95950.03;;;28.48;48.73
58092;BME280;43896;48.178;11.578;2023-08-17T10:57:42;95976.50;;;28.25;48.58
58092;BME280;43896;48.178;11.578;2023-08-17T11:00:24;95965.97;;;28.34;49.60
58092;BME280;43896;48.178;11.578;2023-08-17T11:03:00;95940.00;;;28.23;47.25
58092;BME280;43896;48.178;11.578;2023-08-17T11:05:36;95895.47;;;27.67;49.36
58092;BME280;43896;48.178;11.578;2023-08-17T11:08:03;95920.50;;;28.21;50.89
58092;BME280;43896;48.178;11.578;2023-08-17T11:10:29;95922.66;;;28.19;49.04
58092;BME280;43896;48.178;11.578;2023-08-17T11:12:55;95905.66;;;28.29;51.32
58092;BME280;43896;48.178;11.578;2023-08-17T11:15:38;95901.84;;;28.50;50.10
58092;BME280;43896;48.178;11.578;2023-08-17T11:18:05;95948.16;;;28.90;49.54
58092;BME280;43896;48.178;11.578;2023-08-17T11:20:31;95925.38;;;29.06;47.82
58092;BME280;43896;48.178;11.578;2023-08-17T11:22:57;95917.53;;;29.10;48.57
58092;BME280;43896;48.178;11.578;2023-08-17T11:25:38;95870.75;;;28.48;48.06
58092;BME280;43896;48.178;11.578;2023-08-17T11:28:06;95921.91;;;28.85;48.75
58092;BME280;43896;48.178;11.578;2023-08-17T11:30:36;95919.47;;;28.78;48.13
58092;BME280;43896;48.178;11.578;2023-08-17T11:33:04;95942.72;;;28.95;48.51
58092;BME280;43896;48.178;11.578;2023-08-17T11:35:31;95862.63;;;28.53;48.62
58092;BME280;43896;48.178;11.578;2023-08-17T11:37:56;95903.25;;;28.68;48.75
58092;BME280;43896;48.178;11.578;2023-08-17T11:40:25;95947.06;;;29.22;50.20
58092;BME280;43896;48.178;11.578;2023-08-17T11:42:52;95947.56;;;29.13;49.20
58092;BME280;43896;48.178;11.578;2023-08-17T11:45:18;95847.72;;;28.81;49.69
58092;BME280;43896;48.178;11.578;2023-08-17T11:47:46;95895.34;;;28.97;49.12
58092;BME280;43896;48.178;11.578;2023-08-17T11:50:15;95857.94;;;29.25;49.00
58092;BME280;43896;48.178;11.578;2023-08-17T11:52:46;95894.19;;;29.34;47.05
58092;BME280;43896;48.178;11.578;2023-08-17T11:55:16;95867.72;;;29.21;47.62
58092;BME280;43896;48.178;11.578;2023-08-17T11:57:48;95866.84;;;29.15;46.75
58092;BME280;43896;48.178;11.578;2023-08-17T12:00:22;95886.38;;;29.33;47.95
58092;BME280;43896;48.178;11.578;2023-08-17T12:02:48;95847.91;;;29.21;47.46
58092;BME280;43896;48.178;11.578;2023-08-17T12:05:19;95861.84;;;29.53;48.21
58092;BME280;43896;48.178;11.578;2023-08-17T12:07:47;95870.78;;;29.64;47.33
58092;BME280;43896;48.178;11.578;2023-08-17T12:10:12;95874.94;;;29.36;47.06
58092;BME280;43896;48.178;11.578;2023-08-17T12:12:38;95886.88;;;29.35;46.90
58092;BME280;43896;48.178;11.578;2023-08-17T12:15:11;95826.47;;;29.29;47.02
58092;BME280;43896;48.178;11.578;2023-08-17T12:17:44;95864.53;;;29.64;47.25
58092;BME280;43896;48.178;11.578;2023-08-17T12:20:18;95892.69;;;29.78;46.43
58092;BME280;43896;48.178;11.578;2023-08-17T12:22:44;95838.97;;;29.25;46.54
58092;BME280;43896;48.178;11.578;2023-08-17T12:25:10;95907.66;;;30.10;46.63
58092;BME280;43896;48.178;11.578;2023-08-17T12:27:35;95882.75;;;30.03;46.19
58092;BME280;43896;48.178;11.578;2023-08-17T12:30:01;95896.47;;;29.77;46.08
58092;BME280;43896;48.178;11.578;2023-08-17T12:32:27;95828.94;;;29.26;45.01
58092;BME280;43896;48.178;11.578;2023-08-17T12:34:52;95884.28;;;29.80;44.05
58092;BME280;43896;48.178;11.578;2023-08-17T12:37:19;95800.09;;;29.55;44.70
58092;BME280;43896;48.178;11.578;2023-08-17T12:39:48;95834.66;;;29.79;45.33
58092;BME280;43896;48.178;11.578;2023-08-17T12:42:14;95801.03;;;29.75;42.72
58092;BME280;43896;48.178;11.578;2023-08-17T12:44:40;95808.03;;;29.91;42.46
58092;BME280;43896;48.178;11.578;2023-08-17T12:47:06;95828.28;;;30.34;43.73
58092;BME280;43896;48.178;11.578;2023-08-17T12:49:32;95809.03;;;30.01;42.25
58092;BME280;43896;48.178;11.578;2023-08-17T12:51:57;95788.56;;;29.79;41.73
58092;BME280;43896;48.178;11.578;2023-08-17T12:54:22;95865.09;;;30.50;41.11
58092;BME280;43896;48.178;11.578;2023-08-17T12:56:48;95807.72;;;29.93;40.91
58092;BME280;43896;48.178;11.578;2023-08-17T12:59:13;95830.28;;;30.23;41.55
58092;BME280;43896;48.178;11.578;2023-08-17T13:02:05;95836.94;;;30.41;39.65
58092;BME280;43896;48.178;11.578;2023-08-17T13:04:33;95869.78;;;30.69;39.35
58092;BME280;43896;48.178;11.578;2023-08-17T13:07:01;95836.41;;;30.39;39.86
58092;BME280;43896;48.178;11.578;2023-08-17T13:09:26;95794.69;;;29.95;40.51
58092;BME280;43896;48.178;11.578;2023-08-17T13:11:52;95839.22;;;30.23;39.61
58092;BME280;43896;48.178;11.578;2023-08-17T13:14:17;95812.38;;;30.22;39.71
58092;BME280;43896;48.178;11.578;2023-08-17T13:16:43;95876.13;;;30.59;39.88
58092;BME280;43896;48.178;11.578;2023-08-17T13:19:08;95865.91;;;30.51;39.23
58092;BME280;43896;48.178;11.578;2023-08-17T13:21:33;95829.06;;;30.69;38.46
58092;BME280;43896;48.178;11.578;2023-08-17T13:23:59;95829.06;;;30.39;37.49
58092;BME280;43896;48.178;11.578;2023-08-17T13:26:25;95810.66;;;30.36;37.97
58092;BME280;43896;48.178;11.578;2023-08-17T13:28:50;95782.34;;;30.13;37.64
58092;BME280;43896;48.178;11.578;2023-08-17T13:31:21;95761.59;;;29.53;36.94